Weather at Peterborough Municipal Airport

Public forecast

Using degrees Celsius for public forecast. Weather courtesy of forecast.io.

Current aviation weather report (METAR) for Peterborough Municipal Airport

Report is more than 6 hours old.

Retrieved 2022/09/17 19:00 UTC (19 days ago):

CYPQ 171900Z AUTO 19007KT 160V230 9SM CLR 24/17 A3012 RMK SLP203 DENSITY ALT 1600FT

Aviation forecast (TAF) for Peterborough Municipal Airport

Forecast is more than 12 hours old.

Retrieved 2022/09/17 14:42 UTC (20 days ago):

TAF CYPQ 171340Z 1714/1802 VRB03KT P6SM SCT020 BKN040 TEMPO 1714/1716 BKN020 OVC040 BECMG 1714/1716 17008KT FM171600 17008KT P6SM FEW040 BECMG 1800/1802 VRB03KT RMK FCST BASED ON AUTO OBS NXT FCST BY 172000Z